Valley Springs, Arkansas
Current Conditions -  °F | °C
As of 11:53 AM on Wednesday 28 Jan 2015 (Local Time) from KHRO Reporting Station
Clear Clear  
Wind Chill: 61°   Ceiling: Unl
Heat Index: 61°   Visibility: 10mi
Dew Point: 37°   Wind: 16mph
Humidity: 41%   Direction: 180°S
Pressure: 30.09"   Gusts: 24mph
Location:  36.16°N, 92.99°W
Report Text: KHRO 281753Z AUTO 18014G21KT 10SM CLR 16/03 A3009 RMK AO2 SLP187 T01610028 10161 20028 58015
Loading
Personal Weather Stations






























Interactive Weather Map New forecast layout! Learn more

10-Day Weather Forecast

Advertisements
Track Severe Weather on mobile